Time;durP1;ratioP1;P1;durP2;ratioP2;P2;SDS_P1;SDS_P2;PMS_P1;PMS_P2;Temp;Humidity;BMP_temperature;BMP_pressure;BME280_temperature;BME280_humidity;BME280_pressure;Samples;Min_cycle;Max_cycle;Signal;HPM_P1;HPM_P2
2022/08/27 00:00:17;;;;;;;;;;;;;;;;;;2187330;67;1991;-67
2022/08/27 00:02:51;;;;;;;;;;;;;;;;;;2187711;59;1674;-66
2022/08/27 00:05:24;;;;;;;;;;;;;;;;;;2188766;59;2147;-67
2022/08/27 00:07:57;;;;;;;;;;;;;;;;;;2187854;67;1097;-66
2022/08/27 00:10:31;;;;;;;;;;;;;;;;;;2188134;67;1347;-66
2022/08/27 00:13:04;;;;;;;;;;;;;;;;;;2188210;59;1805;-66
2022/08/27 00:15:40;;;;;;;;;;;;;;;;;;2188983;59;1268;-66
2022/08/27 00:18:13;;;;;;;;;;;;;;;;;;2187796;67;1992;-66
2022/08/27 00:20:47;;;;;;;;;;;;;;;;;;2187271;67;1210;-66
2022/08/27 00:23:20;;;;;;;;;;;;;;;;;;2187122;59;1817;-66
2022/08/27 00:25:53;;;;;;;;;;;;;;;;;;2187128;59;1796;-67
2022/08/27 00:28:27;;;;;;;;;;;;;;;;;;2188842;67;1286;-66
2022/08/27 00:31:03;;;;;;;;;;;;;;;;;;2186885;67;1292;-66
2022/08/27 00:33:36;;;;;;;;;;;;;;;;;;2187607;59;1711;-66
2022/08/27 00:36:10;;;;;;;;;;;;;;;;;;2187266;59;1594;-66
2022/08/27 00:38:43;;;;;;;;;;;;;;;;;;2188199;59;1944;-66
2022/08/27 00:41:16;;;;;;;;;;;;;;;;;;2187617;67;1109;-66
2022/08/27 00:43:51;;;;;;;;;;;;;;;;;;2187031;59;1662;-66
2022/08/27 00:46:29;;;;;;;;;;;;;;;;;;2187250;59;2421;-65
2022/08/27 00:49:05;;;;;;;;;;;;;;;;;;2186812;59;1852;-67
2022/08/27 00:51:39;;;;;;;;;;;;;;;;;;2187334;59;1814;-67
2022/08/27 00:54:13;;;;;;;;;;;;;;;;;;2187456;59;1797;-67
2022/08/27 00:56:46;;;;;;;;;;;;;;;;;;2187289;59;1817;-67
2022/08/27 00:59:20;;;;;;;;;;;;;;;;;;2186742;59;2448;-67
2022/08/27 01:04:49;;;;;;;;;;;;;;;;;;2187544;59;1644;-66
2022/08/27 01:07:22;;;;;;;;;;;;;;;;;;2186455;59;2420;-67
2022/08/27 01:09:57;;;;;;;;;;;;;;;;;;2187383;59;1916;-66
2022/08/27 01:12:32;;;;;;;;;;;;;;;;;;2187294;59;2388;-67
2022/08/27 01:15:07;;;;;;;;;;;;;;;;;;2187415;59;2449;-66
2022/08/27 01:17:43;;;;;;;;;;;;;;;;;;2186344;59;2476;-66
2022/08/27 01:20:19;;;;;;;;;;;;;;;;;;2187328;59;1930;-66
2022/08/27 01:22:57;;;;;;;;;;;;;;;;;;2186944;59;1847;-64
2022/08/27 01:25:33;;;;;;;;;;;;;;;;;;2188313;59;1787;-65
2022/08/27 01:28:06;;;;;;;;;;;;;;;;;;2187258;60;1249;-63
2022/08/27 01:30:40;;;;;;;;;;;;;;;;;;2187409;67;1207;-64
2022/08/27 01:33:14;;;;;;;;;;;;;;;;;;2187771;59;1804;-65
2022/08/27 01:35:49;;;;;;;;;;;;;;;;;;2186818;59;1951;-65
2022/08/27 01:38:23;;;;;;;;;;;;;;;;;;2187138;59;1767;-66
2022/08/27 01:40:59;;;;;;;;;;;;;;;;;;2186946;59;1930;-64
2022/08/27 01:43:32;;;;;;;;;;;;;;;;;;2187961;59;1874;-66
2022/08/27 01:46:06;;;;;;;;;;;;;;;;;;2187248;59;1853;-64
2022/08/27 01:48:39;;;;;;;;;;;;;;;;;;2187263;59;1817;-66
2022/08/27 01:51:12;;;;;;;;;;;;;;;;;;2187482;59;1648;-66
2022/08/27 01:53:45;;;;;;;;;;;;;;;;;;2187633;59;2435;-65
2022/08/27 01:56:21;;;;;;;;;;;;;;;;;;2187049;59;1885;-64
2022/08/27 01:58:54;;;;;;;;;;;;;;;;;;2186993;59;1932;-65
2022/08/27 02:01:28;;;;;;;;;;;;;;;;;;2187507;59;1698;-66
2022/08/27 02:04:01;;;;;;;;;;;;;;;;;;2187201;59;2410;-65
2022/08/27 02:06:34;;;;;;;;;;;;;;;;;;2186994;59;1681;-64
2022/08/27 02:09:07;;;;;;;;;;;;;;;;;;2187459;59;1380;-65
2022/08/27 02:11:43;;;;;;;;;;;;;;;;;;2187613;59;1245;-65
2022/08/27 02:14:17;;;;;;;;;;;;;;;;;;2186782;59;1828;-65
2022/08/27 02:16:50;;;;;;;;;;;;;;;;;;2187141;59;1836;-66
2022/08/27 02:19:23;;;;;;;;;;;;;;;;;;2186984;59;1926;-65
2022/08/27 02:21:59;;;;;;;;;;;;;;;;;;2186200;59;1884;-65
2022/08/27 02:24:32;;;;;;;;;;;;;;;;;;2186658;59;2385;-64
2022/08/27 02:27:08;;;;;;;;;;;;;;;;;;2186647;59;2465;-66
2022/08/27 02:29:41;;;;;;;;;;;;;;;;;;2186697;59;1546;-65
2022/08/27 02:32:15;;;;;;;;;;;;;;;;;;2186769;59;2492;-64
2022/08/27 02:34:48;;;;;;;;;;;;;;;;;;2186514;59;1621;-65
2022/08/27 02:37:21;;;;;;;;;;;;;;;;;;2186358;59;1797;-66
2022/08/27 02:39:57;;;;;;;;;;;;;;;;;;2186930;59;1940;-65
2022/08/27 02:42:35;;;;;;;;;;;;;;;;;;2186365;59;2449;-66
2022/08/27 02:45:09;;;;;;;;;;;;;;;;;;2186588;59;2479;-65
2022/08/27 02:47:43;;;;;;;;;;;;;;;;;;2186881;59;1900;-66
2022/08/27 02:50:17;;;;;;;;;;;;;;;;;;2186971;59;2037;-65
2022/08/27 02:52:50;;;;;;;;;;;;;;;;;;2185959;59;1856;-64
2022/08/27 02:55:23;;;;;;;;;;;;;;;;;;2186601;59;2116;-65
2022/08/27 02:57:59;;;;;;;;;;;;;;;;;;2186669;59;2467;-65
2022/08/27 03:00:32;;;;;;;;;;;;;;;;;;2187096;59;1930;-66
2022/08/27 03:03:05;;;;;;;;;;;;;;;;;;2186145;59;2373;-65
2022/08/27 03:05:39;;;;;;;;;;;;;;;;;;2188945;59;1381;-64
2022/08/27 03:08:12;;;;;;;;;;;;;;;;;;2186533;59;1476;-66
2022/08/27 03:10:46;;;;;;;;;;;;;;;;;;2187933;59;1331;-66
2022/08/27 03:13:22;;;;;;;;;;;;;;;;;;2188315;59;1260;-66
2022/08/27 03:15:55;;;;;;;;;;;;;;;;;;2194674;54;3589;-73
2022/08/27 03:18:26;;;;;;;;;;;;;;;;;;2193419;60;1319;-74
2022/08/27 03:20:59;;;;;;;;;;;;;;;;;;2194326;59;1940;-74
2022/08/27 03:23:34;;;;;;;;;;;;;;;;;;2197233;67;1150;-74
2022/08/27 03:26:11;;;;;;;;;;;;;;;;;;2194504;67;1395;-74
2022/08/27 03:39:32;;;;;;;;;;;;;;;;;;2234012;53;2433;-74
2022/08/27 03:42:29;;;;;;;;;;;;;;;;;;2192614;59;1294;-75
2022/08/27 03:45:27;;;;;;;;;;;;;;;;;;2194006;60;1304;-74
2022/08/27 04:27:59;;;;;;;;;;;;;;;;;;2283534;53;1668;-66
2022/08/27 04:30:32;;;;;;;;;;;;;;;;;;2194957;59;1201;-66
2022/08/27 04:33:05;;;;;;;;;;;;;;;;;;2194513;67;1180;-66
2022/08/27 04:35:38;;;;;;;;;;;;;;;;;;2193705;59;1337;-66
2022/08/27 04:38:12;;;;;;;;;;;;;;;;;;2194429;59;1711;-66
2022/08/27 05:52:48;;;;;;;;;;;;;;;;;;2296342;59;1768;-66
2022/08/27 05:55:22;;;;;;;;;;;;;;;;;;2196677;59;1167;-66
2022/08/27 05:57:55;;;;;;;;;;;;;;;;;;2194224;60;1256;-65
2022/08/27 06:03:17;;;;;;;;;;;;;;;;;;2190735;59;1784;-65
2022/08/27 06:05:50;;;;;;;;;;;;;;;;;;2190553;67;1219;-66
2022/08/27 06:08:26;;;;;;;;;;;;;;;;;;2192110;59;1232;-66
2022/08/27 06:11:01;;;;;;;;;;;;;;;;;;2191920;59;1518;-65
2022/08/27 06:13:35;;;;;;;;;;;;;;;;;;2192886;67;1254;-65
2022/08/27 06:16:12;;;;;;;;;;;;;;;;;;2191043;67;1192;-66
2022/08/27 06:18:46;;;;;;;;;;;;;;;;;;2190625;67;1092;-66
2022/08/27 06:21:21;;;;;;;;;;;;;;;;;;2189677;67;2044;-65
2022/08/27 06:23:57;;;;;;;;;;;;;;;;;;2190217;67;1220;-66
2022/08/27 06:26:30;;;;;;;;;;;;;;;;;;2190428;59;1302;-65
2022/08/27 06:29:04;;;;;;;;;;;;;;;;;;2190172;67;1204;-65
2022/08/27 06:31:37;;;;;;;;;;;;;;;;;;2189952;67;1566;-64
2022/08/27 06:34:11;;;;;;;;;;;;;;;;;;2189888;67;1093;-65
2022/08/27 06:36:44;;;;;;;;;;;;;;;;;;2189469;59;1276;-65
2022/08/27 06:39:20;;;;;;;;;;;;;;;;;;2189864;67;1714;-65
2022/08/27 06:41:53;;;;;;;;;;;;;;;;;;2189221;67;1993;-64
2022/08/27 06:44:26;;;;;;;;;;;;;;;;;;2190785;59;1213;-66
2022/08/27 06:47:02;;;;;;;;;;;;;;;;;;2190278;67;1243;-65
2022/08/27 06:49:35;;;;;;;;;;;;;;;;;;2189885;67;1205;-65
2022/08/27 06:52:08;;;;;;;;;;;;;;;;;;2190472;59;1307;-65
2022/08/27 06:54:44;;;;;;;;;;;;;;;;;;2190132;67;1102;-65
2022/08/27 06:57:17;;;;;;;;;;;;;;;;;;2191399;67;1144;-65
2022/08/27 06:59:51;;;;;;;;;;;;;;;;;;2190886;67;1932;-63
2022/08/27 07:02:24;;;;;;;;;;;;;;;;;;2190043;59;1688;-64
2022/08/27 07:04:57;;;;;;;;;;;;;;;;;;2190363;59;1264;-63
2022/08/27 07:07:32;;;;;;;;;;;;;;;;;;2189689;67;1206;-62
2022/08/27 07:10:08;;;;;;;;;;;;;;;;;;2189706;59;1391;-62
2022/08/27 07:12:42;;;;;;;;;;;;;;;;;;2190007;59;1268;-65
2022/08/27 07:15:15;;;;;;;;;;;;;;;;;;2190596;67;1218;-65
2022/08/27 07:17:48;;;;;;;;;;;;;;;;;;2191118;67;1206;-65
2022/08/27 07:20:22;;;;;;;;;;;;;;;;;;2191052;67;1985;-65
2022/08/27 07:22:57;;;;;;;;;;;;;;;;;;2190054;67;1251;-65
2022/08/27 07:25:33;;;;;;;;;;;;;;;;;;2192100;60;1295;-65
2022/08/27 07:28:06;;;;;;;;;;;;;;;;;;2191419;67;1241;-65
2022/08/27 07:30:39;;;;;;;;;;;;;;;;;;2192712;67;1259;-65
2022/08/27 07:33:13;;;;;;;;;;;;;;;;;;2189992;59;1300;-65
2022/08/27 07:35:48;;;;;;;;;;;;;;;;;;2190694;59;1462;-64
2022/08/27 07:38:21;;;;;;;;;;;;;;;;;;2191432;59;1802;-64
2022/08/27 07:40:57;;;;;;;;;;;;;;;;;;2190616;67;1928;-64
2022/08/27 07:46:19;;;;;;;;;;;;;;;;;;2191716;67;1092;-65
2022/08/27 07:48:54;;;;;;;;;;;;;;;;;;2191103;67;1096;-64
2022/08/27 07:51:31;;;;;;;;;;;;;;;;;;2190306;67;1290;-65
2022/08/27 07:54:04;;;;;;;;;;;;;;;;;;2190193;59;1181;-63
2022/08/27 07:56:40;;;;;;;;;;;;;;;;;;2190224;67;1096;-64
2022/08/27 07:59:13;;;;;;;;;;;;;;;;;;2189441;67;1128;-65
2022/08/27 08:01:47;;;;;;;;;;;;;;;;;;2190039;59;1936;-65
2022/08/27 08:04:21;;;;;;;;;;;;;;;;;;2190412;60;1226;-65
2022/08/27 08:06:55;;;;;;;;;;;;;;;;;;2190475;67;1290;-65
2022/08/27 08:09:29;;;;;;;;;;;;;;;;;;2189144;59;1343;-64
2022/08/27 08:12:06;;;;;;;;;;;;;;;;;;2189815;59;1278;-65
2022/08/27 08:14:39;;;;;;;;;;;;;;;;;;2189971;67;1228;-63
2022/08/27 08:17:12;;;;;;;;;;;;;;;;;;2190628;67;2311;-65
2022/08/27 08:19:47;;;;;;;;;;;;;;;;;;2189636;67;1121;-65
2022/08/27 08:22:21;;;;;;;;;;;;;;;;;;2190059;67;1920;-62
2022/08/27 08:24:54;;;;;;;;;;;;;;;;;;2190008;67;1266;-63
2022/08/27 08:27:31;;;;;;;;;;;;;;;;;;2190060;67;1240;-65
2022/08/27 08:30:04;;;;;;;;;;;;;;;;;;2189919;67;1148;-65
2022/08/27 08:32:37;;;;;;;;;;;;;;;;;;2190685;67;1235;-65
2022/08/27 08:35:11;;;;;;;;;;;;;;;;;;2189972;67;1272;-63
2022/08/27 08:37:44;;;;;;;;;;;;;;;;;;2191395;59;1803;-64
2022/08/27 08:40:25;;;;;;;;;;;;;;;;;;2190637;67;1002;-65
2022/08/27 08:43:02;;;;;;;;;;;;;;;;;;2190479;59;1312;-64
2022/08/27 08:45:39;;;;;;;;;;;;;;;;;;2189995;67;1302;-64
2022/08/27 08:48:14;;;;;;;;;;;;;;;;;;2191220;67;1238;-64
2022/08/27 08:50:52;;;;;;;;;;;;;;;;;;2189599;67;1276;-64
2022/08/27 08:53:34;;;;;;;;;;;;;;;;;;2190635;59;1046;-64
2022/08/27 08:56:10;;;;;;;;;;;;;;;;;;2190099;67;1207;-64
2022/08/27 08:58:51;;;;;;;;;;;;;;;;;;2190207;67;1445;-63
2022/08/27 09:01:25;;;;;;;;;;;;;;;;;;2191185;59;2001;-63
2022/08/27 09:04:00;;;;;;;;;;;;;;;;;;2189948;59;1462;-63
2022/08/27 09:06:38;;;;;;;;;;;;;;;;;;2189815;67;1231;-64
2022/08/27 09:09:18;;;;;;;;;;;;;;;;;;2189353;59;1348;-64
2022/08/27 09:11:58;;;;;;;;;;;;;;;;;;2190551;59;1300;-64
2022/08/27 09:14:37;;;;;;;;;;;;;;;;;;2190653;67;1287;-64
2022/08/27 09:17:11;;;;;;;;;;;;;;;;;;2191056;67;1173;-65
2022/08/27 09:19:44;;;;;;;;;;;;;;;;;;2190817;67;1127;-64
2022/08/27 09:22:22;;;;;;;;;;;;;;;;;;2189817;67;1928;-64
2022/08/27 09:25:04;;;;;;;;;;;;;;;;;;2190527;67;1198;-65
2022/08/27 09:27:40;;;;;;;;;;;;;;;;;;2190353;67;1198;-64
2022/08/27 09:30:20;;;;;;;;;;;;;;;;;;2190373;67;1251;-62
2022/08/27 09:32:56;;;;;;;;;;;;;;;;;;2190574;67;1322;-64
2022/08/27 09:35:30;;;;;;;;;;;;;;;;;;2191696;59;2490;-65
2022/08/27 09:38:04;;;;;;;;;;;;;;;;;;2190957;59;1720;-64
2022/08/27 09:40:40;;;;;;;;;;;;;;;;;;2190313;67;1258;-62
2022/08/27 09:43:22;;;;;;;;;;;;;;;;;;2190863;59;1946;-63
2022/08/27 09:45:59;;;;;;;;;;;;;;;;;;2191174;67;1223;-61
2022/08/27 09:48:33;;;;;;;;;;;;;;;;;;2190441;67;1216;-62
2022/08/27 09:51:10;;;;;;;;;;;;;;;;;;2190906;67;1288;-62
2022/08/27 09:53:45;;;;;;;;;;;;;;;;;;2190882;59;1160;-64
2022/08/27 09:56:27;;;;;;;;;;;;;;;;;;2191037;67;1101;-62
2022/08/27 09:59:03;;;;;;;;;;;;;;;;;;2191276;67;1217;-59
2022/08/27 10:01:50;;;;;;;;;;;;;;;;;;2190214;67;1935;-62
2022/08/27 10:04:26;;;;;;;;;;;;;;;;;;2190556;67;1556;-64
2022/08/27 10:07:00;;;;;;;;;;;;;;;;;;2190802;67;1199;-63
2022/08/27 10:09:35;;;;;;;;;;;;;;;;;;2191230;59;1271;-63
2022/08/27 10:12:12;;;;;;;;;;;;;;;;;;2190720;59;1351;-64
2022/08/27 10:14:48;;;;;;;;;;;;;;;;;;2191075;67;1188;-63
2022/08/27 10:17:27;;;;;;;;;;;;;;;;;;2192653;67;1156;-64
2022/08/27 10:20:04;;;;;;;;;;;;;;;;;;2190864;67;1182;-64
2022/08/27 10:22:47;;;;;;;;;;;;;;;;;;2190442;67;1990;-63
2022/08/27 10:25:27;;;;;;;;;;;;;;;;;;2191282;67;1093;-64
2022/08/27 10:28:05;;;;;;;;;;;;;;;;;;2190714;67;1270;-63
2022/08/27 10:30:45;;;;;;;;;;;;;;;;;;2190455;67;1208;-64
2022/08/27 10:33:25;;;;;;;;;;;;;;;;;;2192696;67;1268;-63
2022/08/27 10:36:02;;;;;;;;;;;;;;;;;;2192779;59;1404;-63
2022/08/27 10:38:38;;;;;;;;;;;;;;;;;;2190794;59;1704;-64
2022/08/27 10:41:17;;;;;;;;;;;;;;;;;;2189842;67;1944;-63
2022/08/27 10:44:08;;;;;;;;;;;;;;;;;;2190241;59;1288;-64
2022/08/27 10:46:58;;;;;;;;;;;;;;;;;;2190220;67;1184;-63
2022/08/27 10:49:37;;;;;;;;;;;;;;;;;;2190269;67;1184;-63
2022/08/27 10:52:13;;;;;;;;;;;;;;;;;;2190430;59;1176;-62
2022/08/27 10:54:49;;;;;;;;;;;;;;;;;;2189294;67;1124;-63
2022/08/27 10:57:28;;;;;;;;;;;;;;;;;;2189997;67;1192;-64
2022/08/27 11:00:06;;;;;;;;;;;;;;;;;;2190132;67;1111;-63
2022/08/27 11:02:43;;;;;;;;;;;;;;;;;;2190101;59;1973;-63
2022/08/27 11:05:21;;;;;;;;;;;;;;;;;;2192492;67;1096;-64
2022/08/27 11:07:57;;;;;;;;;;;;;;;;;;2191195;67;1221;-63
2022/08/27 11:10:31;;;;;;;;;;;;;;;;;;2189277;67;1188;-64
2022/08/27 11:13:07;;;;;;;;;;;;;;;;;;2190842;59;1205;-64
2022/08/27 11:15:43;;;;;;;;;;;;;;;;;;2189909;67;1258;-64
2022/08/27 11:18:20;;;;;;;;;;;;;;;;;;2190957;67;1133;-65
2022/08/27 11:20:59;;;;;;;;;;;;;;;;;;2190013;67;1278;-64
2022/08/27 11:23:38;;;;;;;;;;;;;;;;;;2189260;67;1993;-64
2022/08/27 11:26:11;;;;;;;;;;;;;;;;;;2190443;67;1154;-63
2022/08/27 11:28:46;;;;;;;;;;;;;;;;;;2190188;67;1075;-64
2022/08/27 11:31:21;;;;;;;;;;;;;;;;;;2191418;67;1207;-64
2022/08/27 11:33:59;;;;;;;;;;;;;;;;;;2191458;67;1247;-64
2022/08/27 11:36:46;;;;;;;;;;;;;;;;;;2191866;67;1328;-64
2022/08/27 11:39:26;;;;;;;;;;;;;;;;;;2191392;59;1752;-65
2022/08/27 11:42:04;;;;;;;;;;;;;;;;;;2190370;67;1936;-64
2022/08/27 11:44:42;;;;;;;;;;;;;;;;;;2191067;59;1292;-63
2022/08/27 11:47:16;;;;;;;;;;;;;;;;;;2191932;59;2134;-64
2022/08/27 11:49:51;;;;;;;;;;;;;;;;;;2190630;67;1184;-64
2022/08/27 11:52:31;;;;;;;;;;;;;;;;;;2190496;59;1231;-64
2022/08/27 11:55:13;;;;;;;;;;;;;;;;;;2190262;67;1074;-63
2022/08/27 11:57:46;;;;;;;;;;;;;;;;;;2191159;67;1255;-65
2022/08/27 12:00:22;;;;;;;;;;;;;;;;;;2189731;67;1141;-64
2022/08/27 12:02:59;;;;;;;;;;;;;;;;;;2190540;59;1934;-63
2022/08/27 12:05:37;;;;;;;;;;;;;;;;;;2190627;67;1376;-64
2022/08/27 12:08:19;;;;;;;;;;;;;;;;;;2193656;67;1109;-65
2022/08/27 12:11:19;;;;;;;;;;;;;;;;;;2191287;59;1697;-65
2022/08/27 12:13:57;;;;;;;;;;;;;;;;;;2191716;67;1247;-62
2022/08/27 12:16:35;;;;;;;;;;;;;;;;;;2190762;67;1185;-63
2022/08/27 12:19:19;;;;;;;;;;;;;;;;;;2189705;67;994;-64
2022/08/27 12:21:59;;;;;;;;;;;;;;;;;;2190186;67;1936;-65
2022/08/27 12:24:50;;;;;;;;;;;;;;;;;;2190437;67;1203;-64
2022/08/27 12:27:34;;;;;;;;;;;;;;;;;;2190369;59;1910;-62
2022/08/27 12:30:19;;;;;;;;;;;;;;;;;;2190112;67;1095;-64
2022/08/27 12:32:53;;;;;;;;;;;;;;;;;;2189897;67;1259;-61
2022/08/27 12:35:31;;;;;;;;;;;;;;;;;;2190561;67;1161;-61
2022/08/27 12:38:12;;;;;;;;;;;;;;;;;;2190405;59;1730;-63
2022/08/27 12:40:52;;;;;;;;;;;;;;;;;;2189875;67;1263;-62
2022/08/27 12:43:26;;;;;;;;;;;;;;;;;;2190697;59;1985;-61
2022/08/27 12:46:01;;;;;;;;;;;;;;;;;;2189838;67;1224;-63
2022/08/27 12:48:38;;;;;;;;;;;;;;;;;;2195473;59;1280;-61
2022/08/27 12:51:14;;;;;;;;;;;;;;;;;;2190161;67;1273;-62
2022/08/27 12:53:52;;;;;;;;;;;;;;;;;;2189603;59;1220;-60
2022/08/27 12:56:33;;;;;;;;;;;;;;;;;;2190089;67;1082;-58
2022/08/27 12:59:12;;;;;;;;;;;;;;;;;;2190007;67;1306;-64
2022/08/27 13:01:53;;;;;;;;;;;;;;;;;;2190257;67;1286;-64
2022/08/27 13:04:27;;;;;;;;;;;;;;;;;;2190607;59;1980;-63
2022/08/27 13:07:00;;;;;;;;;;;;;;;;;;2190128;67;1331;-64
2022/08/27 13:09:35;;;;;;;;;;;;;;;;;;2189633;59;1354;-63
2022/08/27 13:12:17;;;;;;;;;;;;;;;;;;2189365;59;1284;-65
2022/08/27 13:14:52;;;;;;;;;;;;;;;;;;2190188;67;1097;-64
2022/08/27 13:17:25;;;;;;;;;;;;;;;;;;2190412;67;1159;-64
2022/08/27 13:20:00;;;;;;;;;;;;;;;;;;2189604;67;1287;-63
2022/08/27 13:22:38;;;;;;;;;;;;;;;;;;2189742;67;1942;-62
2022/08/27 13:25:22;;;;;;;;;;;;;;;;;;2193965;67;1194;-64
2022/08/27 13:28:06;;;;;;;;;;;;;;;;;;2190110;59;2175;-65
2022/08/27 13:30:40;;;;;;;;;;;;;;;;;;2189758;67;1283;-61
2022/08/27 13:33:16;;;;;;;;;;;;;;;;;;2190473;67;1228;-64
2022/08/27 13:35:49;;;;;;;;;;;;;;;;;;2191858;59;1341;-64
2022/08/27 13:38:24;;;;;;;;;;;;;;;;;;2191006;59;1624;-64
2022/08/27 13:40:59;;;;;;;;;;;;;;;;;;2190057;67;1248;-64
2022/08/27 13:43:39;;;;;;;;;;;;;;;;;;2189773;67;1940;-63
2022/08/27 13:46:15;;;;;;;;;;;;;;;;;;2191415;67;1078;-64
2022/08/27 13:48:50;;;;;;;;;;;;;;;;;;2189881;67;1240;-64
2022/08/27 13:51:27;;;;;;;;;;;;;;;;;;2190380;67;1224;-64
2022/08/27 13:54:17;;;;;;;;;;;;;;;;;;2190084;67;1114;-64
2022/08/27 13:57:07;;;;;;;;;;;;;;;;;;2191251;67;1241;-65
2022/08/27 13:59:43;;;;;;;;;;;;;;;;;;2189046;67;1272;-63
2022/08/27 14:02:23;;;;;;;;;;;;;;;;;;2190823;59;1695;-65
2022/08/27 14:05:09;;;;;;;;;;;;;;;;;;2189292;60;1339;-63
2022/08/27 14:07:46;;;;;;;;;;;;;;;;;;2189024;67;1063;-65
2022/08/27 14:10:37;;;;;;;;;;;;;;;;;;2189641;59;1181;-63
2022/08/27 14:13:11;;;;;;;;;;;;;;;;;;2190184;67;1233;-64
2022/08/27 14:15:48;;;;;;;;;;;;;;;;;;2189505;67;1223;-63
2022/08/27 14:18:23;;;;;;;;;;;;;;;;;;2189683;67;1798;-66
2022/08/27 14:20:57;;;;;;;;;;;;;;;;;;2190296;67;1406;-64
2022/08/27 14:23:32;;;;;;;;;;;;;;;;;;2190006;67;1984;-64
2022/08/27 14:26:05;;;;;;;;;;;;;;;;;;2186064;67;1150;-64
2022/08/27 14:28:38;;;;;;;;;;;;;;;;;;2189848;67;1200;-64
2022/08/27 14:31:15;;;;;;;;;;;;;;;;;;2189939;67;1226;-62
2022/08/27 14:33:48;;;;;;;;;;;;;;;;;;2194059;67;1152;-65
2022/08/27 14:36:22;;;;;;;;;;;;;;;;;;2190537;59;1304;-64
2022/08/27 14:38:55;;;;;;;;;;;;;;;;;;2190921;59;1807;-62
2022/08/27 14:41:29;;;;;;;;;;;;;;;;;;2190231;67;1240;-65
2022/08/27 14:44:02;;;;;;;;;;;;;;;;;;2190877;59;1944;-63
2022/08/27 14:46:38;;;;;;;;;;;;;;;;;;2190113;67;1249;-65
2022/08/27 14:49:13;;;;;;;;;;;;;;;;;;2189994;67;1172;-65
2022/08/27 14:51:47;;;;;;;;;;;;;;;;;;2189687;59;1226;-64
2022/08/27 14:54:21;;;;;;;;;;;;;;;;;;2189365;67;1186;-62
2022/08/27 14:56:57;;;;;;;;;;;;;;;;;;2194343;67;1070;-64
2022/08/27 14:59:30;;;;;;;;;;;;;;;;;;2190520;67;1185;-64
2022/08/27 15:02:08;;;;;;;;;;;;;;;;;;2190411;59;2233;-64
2022/08/27 15:04:41;;;;;;;;;;;;;;;;;;2189444;67;1997;-63
2022/08/27 15:07:14;;;;;;;;;;;;;;;;;;2190248;67;1219;-64
2022/08/27 15:09:48;;;;;;;;;;;;;;;;;;2190595;59;1411;-65
2022/08/27 15:12:21;;;;;;;;;;;;;;;;;;2190763;59;1274;-65
2022/08/27 15:14:54;;;;;;;;;;;;;;;;;;2191601;67;1295;-63
2022/08/27 15:17:30;;;;;;;;;;;;;;;;;;2190957;67;1093;-63
2022/08/27 15:20:04;;;;;;;;;;;;;;;;;;2187484;67;1212;-65
2022/08/27 15:22:39;;;;;;;;;;;;;;;;;;2191710;59;1223;-64
2022/08/27 15:25:12;;;;;;;;;;;;;;;;;;2189469;67;1924;-64
2022/08/27 15:27:45;;;;;;;;;;;;;;;;;;2190540;67;1221;-64
2022/08/27 15:30:19;;;;;;;;;;;;;;;;;;2190589;67;1104;-64
2022/08/27 15:32:56;;;;;;;;;;;;;;;;;;2191674;67;1255;-60
2022/08/27 15:35:29;;;;;;;;;;;;;;;;;;2191746;59;1326;-63
2022/08/27 15:38:03;;;;;;;;;;;;;;;;;;2191509;59;1712;-60
2022/08/27 15:40:36;;;;;;;;;;;;;;;;;;2191547;67;1189;-63
2022/08/27 15:43:10;;;;;;;;;;;;;;;;;;2190722;59;1941;-63
2022/08/27 15:45:43;;;;;;;;;;;;;;;;;;2190877;67;1137;-63
2022/08/27 15:48:20;;;;;;;;;;;;;;;;;;2190722;67;1112;-61
2022/08/27 15:50:53;;;;;;;;;;;;;;;;;;2191430;67;1227;-59
2022/08/27 15:53:27;;;;;;;;;;;;;;;;;;2190897;59;1168;-63
2022/08/27 15:56:01;;;;;;;;;;;;;;;;;;2191039;67;1301;-64
2022/08/27 15:58:35;;;;;;;;;;;;;;;;;;2190927;67;1114;-65
2022/08/27 16:01:10;;;;;;;;;;;;;;;;;;2191091;67;1186;-64
2022/08/27 16:03:47;;;;;;;;;;;;;;;;;;2191369;59;1988;-64
2022/08/27 16:06:20;;;;;;;;;;;;;;;;;;2190575;67;1117;-64
2022/08/27 16:08:53;;;;;;;;;;;;;;;;;;2190745;67;1273;-63
2022/08/27 16:11:26;;;;;;;;;;;;;;;;;;2191161;59;1186;-64
2022/08/27 16:14:00;;;;;;;;;;;;;;;;;;2190940;67;1285;-63
2022/08/27 16:16:34;;;;;;;;;;;;;;;;;;2191314;67;1232;-63
2022/08/27 16:19:10;;;;;;;;;;;;;;;;;;2190262;67;1083;-62
2022/08/27 16:21:43;;;;;;;;;;;;;;;;;;2190732;67;1253;-64
2022/08/27 16:24:16;;;;;;;;;;;;;;;;;;2189920;67;1941;-62
2022/08/27 16:26:49;;;;;;;;;;;;;;;;;;2190912;67;1164;-62
2022/08/27 16:29:23;;;;;;;;;;;;;;;;;;2190700;67;1298;-63
2022/08/27 16:31:56;;;;;;;;;;;;;;;;;;2190898;67;1208;-64
2022/08/27 16:34:32;;;;;;;;;;;;;;;;;;2190974;67;1082;-64
2022/08/27 16:37:05;;;;;;;;;;;;;;;;;;2190276;59;1376;-61
2022/08/27 16:39:38;;;;;;;;;;;;;;;;;;2190924;67;1195;-63
2022/08/27 16:42:11;;;;;;;;;;;;;;;;;;2191692;67;1195;-63
2022/08/27 16:44:45;;;;;;;;;;;;;;;;;;2190289;59;1938;-64
2022/08/27 16:47:18;;;;;;;;;;;;;;;;;;2190726;67;1169;-64
2022/08/27 16:52:43;;;;;;;;;;;;;;;;;;2190886;59;1181;-63
2022/08/27 16:55:17;;;;;;;;;;;;;;;;;;2190545;67;1157;-64
2022/08/27 16:57:50;;;;;;;;;;;;;;;;;;2190526;67;1324;-64
2022/08/27 17:00:24;;;;;;;;;;;;;;;;;;2190432;67;1239;-60
2022/08/27 17:02:57;;;;;;;;;;;;;;;;;;2191135;59;1596;-62
2022/08/27 17:05:33;;;;;;;;;;;;;;;;;;2190628;67;1933;-62
2022/08/27 17:08:06;;;;;;;;;;;;;;;;;;2190395;67;1121;-64
2022/08/27 17:10:42;;;;;;;;;;;;;;;;;;2190708;59;1312;-59
2022/08/27 17:13:16;;;;;;;;;;;;;;;;;;2190827;67;1238;-64
2022/08/27 17:15:51;;;;;;;;;;;;;;;;;;2190075;67;1215;-64
2022/08/27 17:18:26;;;;;;;;;;;;;;;;;;2190483;67;1090;-63
2022/08/27 17:21:02;;;;;;;;;;;;;;;;;;2190506;67;1294;-65
2022/08/27 17:23:37;;;;;;;;;;;;;;;;;;2190466;67;1240;-64
2022/08/27 17:26:11;;;;;;;;;;;;;;;;;;2190313;67;1975;-64
2022/08/27 17:28:45;;;;;;;;;;;;;;;;;;2190227;67;1240;-63
2022/08/27 17:31:19;;;;;;;;;;;;;;;;;;2190444;67;1205;-64
2022/08/27 17:33:53;;;;;;;;;;;;;;;;;;2190553;67;1260;-62
2022/08/27 17:36:31;;;;;;;;;;;;;;;;;;2190682;59;1204;-62
2022/08/27 17:39:04;;;;;;;;;;;;;;;;;;2190007;59;1631;-63
2022/08/27 17:41:39;;;;;;;;;;;;;;;;;;2192986;67;1211;-61
2022/08/27 17:44:14;;;;;;;;;;;;;;;;;;2192538;59;1991;-64
2022/08/27 17:46:47;;;;;;;;;;;;;;;;;;2190437;67;1127;-64
2022/08/27 17:49:20;;;;;;;;;;;;;;;;;;2191841;67;1171;-62
2022/08/27 17:51:59;;;;;;;;;;;;;;;;;;2191066;59;1224;-65
2022/08/27 17:54:34;;;;;;;;;;;;;;;;;;2190011;67;1220;-65
2022/08/27 17:57:15;;;;;;;;;;;;;;;;;;2190572;67;1168;-64
2022/08/27 17:59:48;;;;;;;;;;;;;;;;;;2189823;67;1283;-64
2022/08/27 18:02:23;;;;;;;;;;;;;;;;;;2190807;59;1757;-62
2022/08/27 18:04:56;;;;;;;;;;;;;;;;;;2190136;67;1936;-63
2022/08/27 18:07:32;;;;;;;;;;;;;;;;;;2189936;67;1067;-63
2022/08/27 18:10:05;;;;;;;;;;;;;;;;;;2190241;67;1056;-63
2022/08/27 18:12:38;;;;;;;;;;;;;;;;;;2190247;59;1276;-64
2022/08/27 18:15:15;;;;;;;;;;;;;;;;;;2190202;67;1241;-64
2022/08/27 18:17:48;;;;;;;;;;;;;;;;;;2190407;67;1259;-63
2022/08/27 18:20:23;;;;;;;;;;;;;;;;;;2190290;59;1276;-64
2022/08/27 18:22:59;;;;;;;;;;;;;;;;;;2190280;67;1242;-63
2022/08/27 18:25:33;;;;;;;;;;;;;;;;;;2190113;67;1936;-64
2022/08/27 18:28:07;;;;;;;;;;;;;;;;;;2189603;67;1234;-63
2022/08/27 18:30:42;;;;;;;;;;;;;;;;;;2190028;67;1261;-62
2022/08/27 18:33:15;;;;;;;;;;;;;;;;;;2189999;67;1241;-63
2022/08/27 18:35:48;;;;;;;;;;;;;;;;;;2190217;59;1292;-61
2022/08/27 18:38:24;;;;;;;;;;;;;;;;;;2189860;59;1572;-60
2022/08/27 18:40:57;;;;;;;;;;;;;;;;;;2189982;67;1255;-60
2022/08/27 18:43:33;;;;;;;;;;;;;;;;;;2190162;59;1311;-62
2022/08/27 18:46:07;;;;;;;;;;;;;;;;;;2190254;67;1932;-63
2022/08/27 18:48:40;;;;;;;;;;;;;;;;;;2190455;67;1119;-64
2022/08/27 18:51:16;;;;;;;;;;;;;;;;;;2190319;67;1246;-62
2022/08/27 18:53:52;;;;;;;;;;;;;;;;;;2189649;59;1301;-64
2022/08/27 18:56:25;;;;;;;;;;;;;;;;;;2190683;67;1204;-64
2022/08/27 18:58:58;;;;;;;;;;;;;;;;;;2191156;67;1265;-64
2022/08/27 19:01:32;;;;;;;;;;;;;;;;;;2192454;59;1801;-62
2022/08/27 19:04:05;;;;;;;;;;;;;;;;;;2191314;59;1542;-64
2022/08/27 19:06:39;;;;;;;;;;;;;;;;;;2189775;67;1930;-62
2022/08/27 19:09:15;;;;;;;;;;;;;;;;;;2190800;59;1383;-64
2022/08/27 19:11:50;;;;;;;;;;;;;;;;;;2190006;59;1249;-63
2022/08/27 19:14:23;;;;;;;;;;;;;;;;;;2189809;67;1192;-63
2022/08/27 19:16:57;;;;;;;;;;;;;;;;;;2191565;67;1349;-64
2022/08/27 19:19:30;;;;;;;;;;;;;;;;;;2189936;67;1189;-64
2022/08/27 19:22:04;;;;;;;;;;;;;;;;;;2190100;67;1735;-64
2022/08/27 19:24:39;;;;;;;;;;;;;;;;;;2190245;67;1944;-64
2022/08/27 19:27:13;;;;;;;;;;;;;;;;;;2190550;67;1210;-64
2022/08/27 19:29:46;;;;;;;;;;;;;;;;;;2189735;67;1239;-63
2022/08/27 19:32:20;;;;;;;;;;;;;;;;;;2189846;67;1286;-64
2022/08/27 19:34:54;;;;;;;;;;;;;;;;;;2191395;67;1258;-64
2022/08/27 19:37:29;;;;;;;;;;;;;;;;;;2190686;59;1560;-65
2022/08/27 19:40:05;;;;;;;;;;;;;;;;;;2190661;67;1168;-64
2022/08/27 19:42:39;;;;;;;;;;;;;;;;;;2189857;59;1303;-64
2022/08/27 19:45:12;;;;;;;;;;;;;;;;;;2190232;67;1936;-63
2022/08/27 19:47:45;;;;;;;;;;;;;;;;;;2190505;67;1699;-62
2022/08/27 19:50:19;;;;;;;;;;;;;;;;;;2190897;67;1145;-64
2022/08/27 19:52:52;;;;;;;;;;;;;;;;;;2191463;59;1264;-62
2022/08/27 19:55:28;;;;;;;;;;;;;;;;;;2191116;67;1222;-65
2022/08/27 19:58:01;;;;;;;;;;;;;;;;;;2189782;67;1213;-63
2022/08/27 20:00:34;;;;;;;;;;;;;;;;;;2192645;67;1197;-62
2022/08/27 20:03:08;;;;;;;;;;;;;;;;;;2190813;59;1694;-63
2022/08/27 20:05:41;;;;;;;;;;;;;;;;;;2189181;67;1933;-64
2022/08/27 20:08:14;;;;;;;;;;;;;;;;;;2190947;67;1098;-63
2022/08/27 20:10:50;;;;;;;;;;;;;;;;;;2189511;59;1227;-64
2022/08/27 20:13:24;;;;;;;;;;;;;;;;;;2191401;67;1176;-64